KMIA Airport Information

Runway Information
Runway 08L Length 8600 ft width 150 ft
Elevation 8 ft Threshold 0 ft Heading 87
Runway 26R Length 8600 ft Width 150 ft
Elevation 8 ft Threshold 0 ft Heading 267
Runway 08R Length 10506 ft width 200 ft
Elevation 8 ft Threshold 0 ft Heading 87
Runway 26L Length 10506 ft Width 200 ft
Elevation 8 ft Threshold 0 ft Heading 267
Runway 09 Length 13000 ft width 150 ft
Elevation 7 ft Threshold 1350 ft Heading 87
Runway 27 Length 13000 ft Width 150 ft
Elevation 8 ft Threshold 1270 ft Heading 267
Runway 12 Length 9354 ft width 150 ft
Elevation 8 ft Threshold 0 ft Heading 119
Runway 30 Length 9354 ft Width 150 ft
Elevation 8 ft Threshold 939 ft Heading 299
Airport Frequencies
Type APP Name APP Frequency 120.5 MHZ
Type ATIS Name ATIS Frequency 119.15 MHZ
Type CLD Name CLNC DEL Frequency 120.35 MHZ
Type DEP Name DEP Frequency 119.45 MHZ
Type GND Name GND Frequency 121.8 MHZ
Type TWR Name TWR Frequency 118.3 MHZ
Type UNIC Name UNICOM Frequency 123 MHZ
Airport Navaids
Type VORTAC Name Dolphin Frequency 113900 KHZ
Type NDB Name Keyes Frequency 248 KHZ
Airport Weather Information & NOTAM
ADDS - METARS form results

(0651 UTC 20 May 2022)
Data provider http://aviationweather.gov/metar/data/
 
METAR text: KMIA 200635Z 13017G23KT 1 1/4SM R09/1400V2800FT TSRA BR BKN013CB BKN032 OVC047 24/23 A3000 RMK AO2 PK WND 12030/0619 LTG DSNT SE AND S AND NW RAB0554 TSB13 PRESRR CONS LTGICCG OHD-ALQDS TS OHD-ALQDS MOV N P0040 T02390228 $
Conditions at: KMIA (MIAMI , FL, US) observed 0635 UTC 20 May 2022
Temperature: 23.9°C (75°F)
Dewpoint: 22.8°C (73°F) [RH = 94%]
Pressure (altimeter): 30.00 inches Hg (1016.0 mb)
Winds: from the SE (130 degrees) at 20 MPH (17 knots; 8.7 m/s)
gusting to 26 MPH (23 knots; 11.8 m/s)
Visibility: 1.25 miles (2.01 km)
Ceiling: 1300 feet AGL
Clouds: broken clouds at 1300 feet AGL
broken clouds at 3200 feet AGL
overcast cloud deck at 4700 feet AGL
Weather: TSRA BR  (rain associated with thunderstorm(s), mist)
SOME DATA ABOVE MAY BE INACCURATE!!!
"$" is an indication the sensor requires maintenance

METAR text: KMIA 200633Z 13016G25KT 1 1/2SM R09/1400V5500FT TSRA BR BKN013CB BKN032 OVC047 24/23 A2999 RMK AO2 PK WND 12030/0619 LTG DSNT SE AND S AND NW RAB0554 TSB13 CONS LTGICCG OHD-ALQDS TS OHD-ALQDS MOV N P0029 T02390228 $
Conditions at: KMIA (MIAMI , FL, US) observed 0633 UTC 20 May 2022
Temperature: 23.9°C (75°F)
Dewpoint: 22.8°C (73°F) [RH = 94%]
Pressure (altimeter): 29.99 inches Hg (1015.7 mb)
Winds: from the SE (130 degrees) at 18 MPH (16 knots; 8.2 m/s)
gusting to 29 MPH (25 knots; 12.9 m/s)
Visibility: 1.50 miles (2.41 km)
Ceiling: 1300 feet AGL
Clouds: broken clouds at 1300 feet AGL
broken clouds at 3200 feet AGL
overcast cloud deck at 4700 feet AGL
Weather: TSRA BR  (rain associated with thunderstorm(s), mist)
SOME DATA ABOVE MAY BE INACCURATE!!!
"$" is an indication the sensor requires maintenance

METAR text: KMIA 200629Z 14016G29KT 2SM R09/1800VP6000FT TSRA BR BKN017CB BKN033 OVC110 24/22 A2999 RMK AO2 PK WND 12030/0619 LTG DSNT SE AND S AND NW RAB0554 TSB13 PRESRR CONS LTGICCG OHD-ALQDS TS OHD-ALQDS MOV N P0008 T02390222 $
Conditions at: KMIA (MIAMI , FL, US) observed 0629 UTC 20 May 2022
Temperature: 23.9°C (75°F)
Dewpoint: 22.2°C (72°F) [RH = 90%]
Pressure (altimeter): 29.99 inches Hg (1015.7 mb)
Winds: from the SE (140 degrees) at 18 MPH (16 knots; 8.2 m/s)
gusting to 33 MPH (29 knots; 14.9 m/s)
Visibility: 2.00 miles (3.22 km)
Ceiling: 1700 feet AGL
Clouds: broken clouds at 1700 feet AGL
broken clouds at 3300 feet AGL
overcast cloud deck at 11000 feet AGL
Weather: TSRA BR  (rain associated with thunderstorm(s), mist)
SOME DATA ABOVE MAY BE INACCURATE!!!
"$" is an indication the sensor requires maintenance

METAR text: KMIA 200616Z 10013KT 7SM +TSRA SCT017CB BKN045 BKN100 OVC250 28/26 A2996 RMK AO2 LTG DSNT SE AND S RAB0554 TSB13 CONS LTGICCA DSNT SE OCNL LTGIC SE-SW TS SE-SW MOV N CB DSNT SE MOV N P0000 T02780256 $
Conditions at: KMIA (MIAMI , FL, US) observed 0616 UTC 20 May 2022
Temperature: 27.8°C (82°F)
Dewpoint: 25.6°C (78°F) [RH = 88%]
Pressure (altimeter): 29.96 inches Hg (1014.6 mb)
Winds: from the E (100 degrees) at 15 MPH (13 knots; 6.7 m/s)
Visibility: 7 miles (11 km)
Ceiling: 4500 feet AGL
Clouds: scattered clouds at 1700 feet AGL
broken clouds at 4500 feet AGL
broken clouds at 10000 feet AGL
overcast cloud deck at 25000 feet AGL
Weather: +TSRA  (heavy rain associated with thunderstorm(s))
SOME DATA ABOVE MAY BE INACCURATE!!!
"$" is an indication the sensor requires maintenance

METAR text: KMIA 200603Z 11007KT 10SM VCTS -RA FEW017 BKN045 BKN100 OVC250 28/26 A2997 RMK AO2 LTG DSNT SE AND S RAB0554 CONS LTGICCA DSNT SE-S CB MOV NW CB DSNT SE-S MOV N P0000 T02780256 $
Conditions at: KMIA (MIAMI , FL, US) observed 0603 UTC 20 May 2022
Temperature: 27.8°C (82°F)
Dewpoint: 25.6°C (78°F) [RH = 88%]
Pressure (altimeter): 29.97 inches Hg (1015.0 mb)
Winds: from the ESE (110 degrees) at 8 MPH (7 knots; 3.6 m/s)
Visibility: 10 or more miles (16+ km)
Ceiling: 4500 feet AGL
Clouds: few clouds at 1700 feet AGL
broken clouds at 4500 feet AGL
broken clouds at 10000 feet AGL
overcast cloud deck at 25000 feet AGL
Weather: VCTS -RA  (thunderstorm in vicinity, light rain)
SOME DATA ABOVE MAY BE INACCURATE!!!
"$" is an indication the sensor requires maintenance

METAR text: KMIA 200553Z 13008KT 10SM FEW017CB BKN045 BKN100 OVC250 28/25 A2998 RMK AO2 LTG DSNT SE SLP150 CONS LTGICCA DSNT SE CB W-NW MOV N CB DSNT SE MOV N T02780250 10283 20278 58002 $
Conditions at: KMIA (MIAMI , FL, US) observed 0553 UTC 20 May 2022
Temperature: 27.8°C (82°F)
Dewpoint: 25.0°C (77°F) [RH = 85%]
Pressure (altimeter): 29.98 inches Hg (1015.3 mb)
[Sea-level pressure: 1015.0 mb]
Winds: from the SE (130 degrees) at 9 MPH (8 knots; 4.1 m/s)
Visibility: 10 or more miles (16+ km)
Ceiling: 4500 feet AGL
Clouds: few clouds at 1700 feet AGL
broken clouds at 4500 feet AGL
broken clouds at 10000 feet AGL
overcast cloud deck at 25000 feet AGL
Weather:
SOME DATA ABOVE MAY BE INACCURATE!!!
"$" is an indication the sensor requires maintenance

Forecast for: KMIA (MIAMI , FL, US)
Text: KMIA 200520Z 2006/2112 17006KT P6SM VCTS SCT025CB BKN050
Forecast period: 0600 to 1600 UTC 20 May 2022
Forecast type: FROM: standard forecast or significant change
Winds: from the S (170 degrees) at 7 MPH (6 knots; 3.1 m/s)
Visibility: 6 or more miles (10+ km)
Ceiling: 5000 feet AGL
Clouds: scattered clouds at 2500 feet AGL
broken clouds at 5000 feet AGL
Weather: VCTS  (thunderstorm in vicinity)
Text: TEMPO 2006/2009 VRB15G25KT 3SM TSRA BKN025CB
Forecast period: 0600 to 0900 UTC 20 May 2022
Forecast type: TEMPORARY: The following changes expected for less than half the time period
Winds: variable direction winds at 17 MPH (15 knots; 7.7 m/s)
gusting to 29 MPH (25 knots; 12.9 m/s)
Visibility: 3 miles (5 km)
Ceiling: 2500 feet AGL
Clouds: broken clouds at 2500 feet AGL
Weather: TSRA  (rain associated with thunderstorm(s))
Text: FM201600 14008KT P6SM VCTS SCT020CB BKN050
Forecast period: 1600 to 2200 UTC 20 May 2022
Forecast type: FROM: standard forecast or significant change
Winds: from the SE (140 degrees) at 9 MPH (8 knots; 4.1 m/s)
Visibility: 6 or more miles (10+ km)
Ceiling: 5000 feet AGL
Clouds: scattered clouds at 2000 feet AGL
broken clouds at 5000 feet AGL
Weather: VCTS  (thunderstorm in vicinity)
Text: PROB30 2016/2022 4SM TSRA SCT010 BKN020CB
Forecast period: 1600 to 2200 UTC 20 May 2022
Forecast type: PROBABLE: 30 percent likelihood of the following during this time
Visibility: 4 miles (6 km)
Ceiling: 2000 feet AGL
Clouds: scattered clouds at 1000 feet AGL
broken clouds at 2000 feet AGL
Weather: TSRA  (rain associated with thunderstorm(s))
Text: FM202200 12009KT P6SM VCSH SCT025 BKN050 BKN250
Forecast period: 2200 UTC 20 May 2022 to 0600 UTC 21 May 2022
Forecast type: FROM: standard forecast or significant change
Winds: from the ESE (120 degrees) at 10 MPH (9 knots; 4.6 m/s)
Visibility: 6 or more miles (10+ km)
Ceiling: 5000 feet AGL
Clouds: scattered clouds at 2500 feet AGL
broken clouds at 5000 feet AGL
broken clouds at 25000 feet AGL
Weather: VCSH  (showers in vicinity)
Text: FM210600 11010KT P6SM SCT030 BKN050
Forecast period: 0600 to 1200 UTC 21 May 2022
Forecast type: FROM: standard forecast or significant change
Winds: from the ESE (110 degrees) at 12 MPH (10 knots; 5.1 m/s)
Visibility: 6 or more miles (10+ km)
Ceiling: 5000 feet AGL
Clouds: scattered clouds at 3000 feet AGL
broken clouds at 5000 feet AGL
Weather: no significant weather forecast for this period